Time;durP1;ratioP1;P1;durP2;ratioP2;P2;SDS_P1;SDS_P2;PMS_P1;PMS_P2;Temp;Humidity;BMP_temperature;BMP_pressure;BME280_temperature;BME280_humidity;BME280_pressure;Samples;Min_cycle;Max_cycle;Signal;HPM_P1;HPM_P2
2022/03/22 00:01:39;;;;;;;93.32;35.03;;;;;;;;;;6234621;28;20416;-68
2022/03/22 00:04:39;;;;;;;98.47;37.03;;;;;;;;;;6232822;28;20128;-69
2022/03/22 00:07:40;;;;;;;90.65;36.33;;;;;;;;;;6236728;28;20495;-69
2022/03/22 00:10:41;;;;;;;107.47;39.55;;;;;;;;;;6234499;28;20061;-69
2022/03/22 00:13:43;;;;;;;98.20;36.75;;;;;;;;;;6234842;28;20038;-69
2022/03/22 00:16:43;;;;;;;92.67;37.23;;;;;;;;;;6231501;28;20041;-69
2022/03/22 00:19:44;;;;;;;91.00;34.97;;;;;;;;;;6231552;28;20049;-69
2022/03/22 00:22:45;;;;;;;98.43;37.10;;;;;;;;;;6236709;28;20045;-69
2022/03/22 00:25:45;;;;;;;95.07;35.80;;;;;;;;;;6235585;28;20053;-68
2022/03/22 00:28:47;;;;;;;93.10;35.67;;;;;;;;;;6237152;28;20060;-68
2022/03/22 00:31:48;;;;;;;94.70;36.97;;;;;;;;;;6236487;28;20077;-69
2022/03/22 00:34:48;;;;;;;90.85;36.97;;;;;;;;;;6233845;28;20041;-69
2022/03/22 00:37:51;;;;;;;108.90;37.83;;;;;;;;;;6233131;28;20056;-69
2022/03/22 00:40:51;;;;;;;;;;;;;;;;;;6235244;28;20396;-68
2022/03/22 00:43:52;;;;;;;87.85;33.53;;;;;;;;;;6234685;28;19999;-68
2022/03/22 00:46:54;;;;;;;103.20;37.13;;;;;;;;;;6231858;28;20056;-68
2022/03/22 00:49:54;;;;;;;91.80;34.25;;;;;;;;;;6234229;28;20876;-68
2022/03/22 00:52:57;;;;;;;97.00;35.42;;;;;;;;;;6232847;28;20133;-68
2022/03/22 00:56:01;;;;;;;88.50;34.72;;;;;;;;;;6235494;28;20128;-68
2022/03/22 01:02:22;;;;;;;95.78;36.50;;;;;;;;;;6233925;28;20049;-68
2022/03/22 01:05:24;;;;;;;83.57;34.25;;;;;;;;;;6234864;28;20492;-67
2022/03/22 01:08:25;;;;;;;92.70;34.60;;;;;;;;;;6237225;28;20053;-67
2022/03/22 01:11:26;;;;;;;93.30;34.20;;;;;;;;;;6234059;28;20516;-67
2022/03/22 01:14:27;;;;;;;98.20;35.28;;;;;;;;;;6231645;28;20045;-68
2022/03/22 01:17:31;;;;;;;92.63;34.87;;;;;;;;;;6233042;28;22631;-70
2022/03/22 01:20:39;;;;;;;87.72;34.00;;;;;;;;;;6235317;28;20057;-70
2022/03/22 01:23:39;;;;;;;91.90;35.10;;;;;;;;;;6235199;28;20104;-68
2022/03/22 01:26:41;;;;;;;88.68;33.08;;;;;;;;;;6232820;28;20195;-69
2022/03/22 01:29:41;;;;;;;89.17;33.40;;;;;;;;;;6237372;28;20045;-69
2022/03/22 01:32:43;;;;;;;86.07;32.92;;;;;;;;;;6233839;28;20294;-69
2022/03/22 01:35:44;;;;;;;85.35;33.70;;;;;;;;;;6235808;28;20061;-69
2022/03/22 01:38:46;;;;;;;91.18;36.05;;;;;;;;;;6238453;28;20097;-69
2022/03/22 01:41:47;;;;;;;93.53;34.50;;;;;;;;;;6236263;28;20049;-68
2022/03/22 01:44:50;;;;;;;91.43;37.05;;;;;;;;;;6239626;28;20568;-69
2022/03/22 01:47:52;;;;;;;89.07;35.10;;;;;;;;;;6240087;28;20416;-67
2022/03/22 01:50:54;;;;;;;86.80;34.05;;;;;;;;;;6239741;28;20064;-68
2022/03/22 01:53:56;;;;;;;90.72;33.00;;;;;;;;;;6235726;28;20504;-67
2022/03/22 01:56:57;;;;;;;86.53;34.40;;;;;;;;;;6238631;28;20461;-68
2022/03/22 01:59:57;;;;;;;99.45;37.83;;;;;;;;;;6239405;28;20053;-68
2022/03/22 02:06:20;;;;;;;99.43;38.50;;;;;;;;;;6239608;28;20095;-67
2022/03/22 02:09:21;;;;;;;97.18;39.13;;;;;;;;;;6238107;28;21278;-68
2022/03/22 02:12:22;;;;;;;110.35;41.45;;;;;;;;;;6244063;28;20038;-69
2022/03/22 02:15:23;;;;;;;102.35;38.03;;;;;;;;;;6244654;28;20049;-70
2022/03/22 02:18:24;;;;;;;102.68;39.53;;;;;;;;;;6241526;28;20156;-70
2022/03/22 02:21:31;;;;;;;100.88;39.90;;;;;;;;;;6240964;28;20053;-70
2022/03/22 02:24:32;;;;;;;97.47;39.10;;;;;;;;;;6239239;28;20144;-69
2022/03/22 02:27:34;;;;;;;105.13;40.45;;;;;;;;;;6240477;28;20053;-69
2022/03/22 02:30:35;;;;;;;98.05;39.05;;;;;;;;;;6238991;28;20043;-69
2022/03/22 02:33:40;;;;;;;105.15;42.92;;;;;;;;;;6237556;28;20069;-67
2022/03/22 02:36:42;;;;;;;135.57;46.35;;;;;;;;;;6240836;28;20480;-69
2022/03/22 02:39:44;;;;;;;105.85;43.50;;;;;;;;;;6236047;28;20515;-69
2022/03/22 02:42:50;;;;;;;106.10;42.50;;;;;;;;;;6241737;28;20408;-69
2022/03/22 02:45:51;;;;;;;116.78;44.63;;;;;;;;;;6239203;28;20073;-68
2022/03/22 02:48:52;;;;;;;115.05;42.53;;;;;;;;;;6237784;28;20048;-68
2022/03/22 02:51:53;;;;;;;113.53;43.92;;;;;;;;;;6238044;28;20428;-67
2022/03/22 02:54:53;;;;;;;115.32;44.25;;;;;;;;;;6237577;28;20045;-67
2022/03/22 02:57:54;;;;;;;118.28;43.70;;;;;;;;;;6239203;28;20801;-69
2022/03/22 03:00:54;;;;;;;121.50;45.22;;;;;;;;;;6235670;28;20048;-67
2022/03/22 03:03:56;;;;;;;114.97;43.70;;;;;;;;;;6238064;28;20045;-68
2022/03/22 03:06:56;;;;;;;109.00;41.78;;;;;;;;;;6238618;28;20148;-70
2022/03/22 03:09:57;;;;;;;122.35;43.05;;;;;;;;;;6236366;28;20045;-70
2022/03/22 03:12:59;;;;;;;122.03;44.33;;;;;;;;;;6236235;28;20140;-67
2022/03/22 03:16:00;;;;;;;120.57;43.63;;;;;;;;;;6240274;28;20080;-68
2022/03/22 03:19:00;;;;;;;114.47;41.70;;;;;;;;;;6237892;28;20064;-68
2022/03/22 03:22:03;;;;;;;115.22;44.58;;;;;;;;;;6236008;28;20060;-68
2022/03/22 03:25:06;;;;;;;115.47;44.13;;;;;;;;;;6237471;28;20094;-68
2022/03/22 03:28:06;;;;;;;115.88;43.42;;;;;;;;;;6235509;28;20076;-68
2022/03/22 03:31:07;;;;;;;115.72;42.78;;;;;;;;;;6237666;28;20466;-68
2022/03/22 03:34:09;;;;;;;117.82;43.83;;;;;;;;;;6238022;28;20471;-67
2022/03/22 03:37:10;;;;;;;112.43;43.03;;;;;;;;;;6238610;28;20187;-68
2022/03/22 03:40:12;;;;;;;112.65;42.13;;;;;;;;;;6237036;28;20492;-68
2022/03/22 03:43:13;;;;;;;125.05;44.03;;;;;;;;;;6237932;28;20427;-67
2022/03/22 03:49:34;;;;;;;152.38;49.40;;;;;;;;;;6233250;28;20050;-69
2022/03/22 03:52:37;;;;;;;98.70;38.75;;;;;;;;;;6237784;28;20052;-68
2022/03/22 03:55:38;;;;;;;137.23;47.45;;;;;;;;;;6232971;28;20476;-67
2022/03/22 03:58:38;;;;;;;141.00;46.47;;;;;;;;;;6235201;28;20068;-68
2022/03/22 04:01:39;;;;;;;125.20;44.70;;;;;;;;;;6236367;28;20065;-67
2022/03/22 04:04:41;;;;;;;118.25;41.67;;;;;;;;;;6236610;28;20476;-70
2022/03/22 04:07:41;;;;;;;124.18;45.58;;;;;;;;;;6238399;28;20451;-68
2022/03/22 04:10:42;;;;;;;112.43;41.80;;;;;;;;;;6236621;28;20132;-68
2022/03/22 04:13:43;;;;;;;103.63;40.03;;;;;;;;;;6236992;28;20052;-67
2022/03/22 04:16:43;;;;;;;103.70;40.20;;;;;;;;;;6234334;28;20420;-68
2022/03/22 04:19:45;;;;;;;108.57;41.42;;;;;;;;;;6236591;28;20111;-67
2022/03/22 04:22:47;;;;;;;113.60;43.33;;;;;;;;;;6232105;28;20038;-68
2022/03/22 04:25:48;;;;;;;111.70;42.58;;;;;;;;;;6235726;28;20060;-68
2022/03/22 04:35:28;;;;;;;102.55;39.78;;;;;;;;;;6234669;28;20527;-68
2022/03/22 04:38:29;;;;;;;100.97;41.23;;;;;;;;;;6234310;28;20056;-68
2022/03/22 04:41:29;;;;;;;105.55;39.80;;;;;;;;;;6236073;28;20041;-68
2022/03/22 04:44:30;;;;;;;112.75;44.72;;;;;;;;;;6237275;28;20528;-68
2022/03/22 04:47:32;;;;;;;116.15;42.63;;;;;;;;;;6233393;28;20124;-68
2022/03/22 04:50:33;;;;;;;109.68;42.08;;;;;;;;;;6233734;28;20053;-68
2022/03/22 04:56:54;;;;;;;101.72;40.33;;;;;;;;;;6233660;28;20046;-68
2022/03/22 04:59:55;;;;;;;104.57;41.38;;;;;;;;;;6235918;28;20428;-68
2022/03/22 05:02:56;;;;;;;106.88;40.83;;;;;;;;;;6236430;28;20137;-69
2022/03/22 05:09:17;;;;;;;98.35;37.95;;;;;;;;;;6234565;28;20692;-67
2022/03/22 05:12:17;;;;;;;97.50;39.55;;;;;;;;;;6235274;28;20077;-67
2022/03/22 05:15:18;;;;;;;102.90;39.33;;;;;;;;;;6232185;28;20068;-67
2022/03/22 05:18:20;;;;;;;100.43;39.92;;;;;;;;;;6231963;28;20128;-67
2022/03/22 05:21:21;;;;;;;98.57;40.50;;;;;;;;;;6229289;28;20041;-68
2022/03/22 05:24:22;;;;;;;110.15;41.42;;;;;;;;;;6238720;28;20057;-68
2022/03/22 05:27:22;;;;;;;107.78;42.78;;;;;;;;;;6238008;28;20133;-69
2022/03/22 05:30:23;;;;;;;106.75;42.05;;;;;;;;;;6236023;28;20041;-69
2022/03/22 05:33:24;;;;;;;104.15;40.42;;;;;;;;;;6235249;28;20650;-69
2022/03/22 05:36:25;;;;;;;115.28;41.95;;;;;;;;;;6235304;28;20048;-68
2022/03/22 05:39:26;;;;;;;103.40;40.70;;;;;;;;;;6235438;28;20238;-70
2022/03/22 05:42:26;;;;;;;111.55;41.75;;;;;;;;;;6230860;28;20037;-71
2022/03/22 05:45:27;;;;;;;113.13;43.55;;;;;;;;;;6231434;28;20176;-70
2022/03/22 05:48:29;;;;;;;111.15;42.50;;;;;;;;;;6235474;28;20111;-69
2022/03/22 05:51:29;;;;;;;118.17;45.17;;;;;;;;;;6234133;28;20033;-70
2022/03/22 05:54:30;;;;;;;108.45;41.92;;;;;;;;;;6233815;28;20067;-69
2022/03/22 05:57:31;;;;;;;115.45;42.30;;;;;;;;;;6233213;28;20047;-69
2022/03/22 06:00:34;;;;;;;121.88;43.10;;;;;;;;;;6237311;28;20124;-69
2022/03/22 06:03:35;;;;;;;112.80;44.03;;;;;;;;;;6240628;28;20045;-68
2022/03/22 06:06:36;;;;;;;106.78;42.63;;;;;;;;;;6238318;28;20572;-68
2022/03/22 06:09:37;;;;;;;114.43;45.47;;;;;;;;;;6234087;28;20168;-69
2022/03/22 06:12:45;;;;;;;130.18;44.55;;;;;;;;;;6240390;28;20554;-70
2022/03/22 06:15:46;;;;;;;120.32;47.55;;;;;;;;;;6240956;28;20153;-68
2022/03/22 06:18:47;;;;;;;124.15;49.47;;;;;;;;;;6239567;28;20501;-68
2022/03/22 06:21:48;;;;;;;133.65;51.38;;;;;;;;;;6238494;28;20133;-69
2022/03/22 06:24:48;;;;;;;132.93;51.33;;;;;;;;;;6239851;28;20523;-68
2022/03/22 06:27:51;;;;;;;133.25;52.03;;;;;;;;;;6239960;28;20128;-68
2022/03/22 06:30:52;;;;;;;147.60;56.38;;;;;;;;;;6240321;28;20496;-69
2022/03/22 06:33:53;;;;;;;159.07;58.05;;;;;;;;;;6243482;28;20079;-68
2022/03/22 06:36:54;;;;;;;166.35;58.78;;;;;;;;;;6239513;28;20045;-68
2022/03/22 06:39:55;;;;;;;159.20;58.38;;;;;;;;;;6243311;28;20465;-67
2022/03/22 06:42:57;;;;;;;155.48;59.15;;;;;;;;;;6237851;28;20046;-65
2022/03/22 06:45:59;;;;;;;154.50;57.50;;;;;;;;;;6238219;28;20058;-67
2022/03/22 06:49:00;;;;;;;;;;;;;;;;;;6241176;28;20057;-66
2022/03/22 06:52:00;;;;;;;148.43;57.08;;;;;;;;;;6243753;28;19990;-68
2022/03/22 06:55:05;;;;;;;146.52;55.55;;;;;;;;;;6239747;28;20049;-68
2022/03/22 06:58:06;;;;;;;142.98;56.97;;;;;;;;;;6239721;28;20127;-69
2022/03/22 07:01:07;;;;;;;146.43;57.78;;;;;;;;;;6241836;28;20119;-70
2022/03/22 07:04:08;;;;;;;144.30;56.38;;;;;;;;;;6232551;28;20163;-70
2022/03/22 07:07:09;;;;;;;151.95;56.00;;;;;;;;;;6238918;28;20420;-66
2022/03/22 07:10:15;;;;;;;139.90;55.00;;;;;;;;;;6238532;28;20098;-67
2022/03/22 07:13:16;;;;;;;132.82;52.38;;;;;;;;;;6237808;28;20061;-68
2022/03/22 07:16:19;;;;;;;131.23;51.95;;;;;;;;;;6240447;28;20473;-69
2022/03/22 07:19:20;;;;;;;;;;;;;;;;;;6241261;28;20061;-68
2022/03/22 07:22:21;;;;;;;124.45;47.35;;;;;;;;;;6236997;28;19921;-67
2022/03/22 07:25:22;;;;;;;114.63;45.47;;;;;;;;;;6238562;28;20055;-67
2022/03/22 07:28:22;;;;;;;159.98;55.67;;;;;;;;;;6236230;28;20046;-68
2022/03/22 07:31:23;;;;;;;156.82;56.97;;;;;;;;;;6238746;28;20129;-67
2022/03/22 07:34:24;;;;;;;122.90;48.90;;;;;;;;;;6237815;28;20055;-69
2022/03/22 07:37:27;;;;;;;114.83;46.17;;;;;;;;;;6236484;28;20389;-69
2022/03/22 07:40:27;;;;;;;110.20;45.30;;;;;;;;;;6242324;28;20072;-70
2022/03/22 07:43:29;;;;;;;111.05;44.83;;;;;;;;;;6242052;28;20045;-67
2022/03/22 07:46:30;;;;;;;133.02;49.60;;;;;;;;;;6235321;28;20038;-69
2022/03/22 07:53:00;;;;;;;113.80;46.30;;;;;;;;;;6232385;28;20148;-68
2022/03/22 07:56:01;;;;;;;127.45;50.15;;;;;;;;;;6241511;28;20107;-70
2022/03/22 07:59:01;;;;;;;119.63;46.67;;;;;;;;;;6236489;28;20136;-69
2022/03/22 08:02:04;;;;;;;99.88;43.65;;;;;;;;;;6236164;28;20056;-70
2022/03/22 08:05:05;;;;;;;106.78;42.10;;;;;;;;;;6233939;28;20076;-70
2022/03/22 08:08:07;;;;;;;85.63;37.37;;;;;;;;;;6236835;28;20412;-70
2022/03/22 08:11:07;;;;;;;83.25;36.38;;;;;;;;;;6237015;28;20049;-69
2022/03/22 08:14:08;;;;;;;78.50;36.75;;;;;;;;;;6237024;28;20061;-69
2022/03/22 08:17:09;;;;;;;64.50;29.25;;;;;;;;;;6236145;28;20129;-70
2022/03/22 08:20:11;;;;;;;63.10;26.90;;;;;;;;;;6235965;28;20061;-68
2022/03/22 08:23:12;;;;;;;57.05;27.05;;;;;;;;;;6237011;28;20061;-65
2022/03/22 08:26:16;;;;;;;54.03;25.70;;;;;;;;;;6236358;28;20102;-80
2022/03/22 08:29:16;;;;;;;58.35;26.52;;;;;;;;;;6235819;28;20045;-68
2022/03/22 08:32:17;;;;;;;52.67;24.67;;;;;;;;;;6239590;28;20041;-68
2022/03/22 08:35:19;;;;;;;59.38;25.02;;;;;;;;;;6239131;28;20132;-68
2022/03/22 08:38:21;;;;;;;63.33;26.90;;;;;;;;;;6240446;28;20160;-68
2022/03/22 08:41:22;;;;;;;;;;;;;;;;;;6237567;28;20551;-68
2022/03/22 08:44:23;;;;;;;56.00;25.67;;;;;;;;;;6240754;28;19967;-69
2022/03/22 08:47:24;;;;;;;51.80;25.27;;;;;;;;;;6241099;28;20033;-68
2022/03/22 08:50:25;;;;;;;55.83;26.25;;;;;;;;;;6239501;28;20046;-68
2022/03/22 08:53:26;;;;;;;58.88;27.30;;;;;;;;;;6239875;28;20458;-68
2022/03/22 08:56:26;;;;;;;62.58;28.02;;;;;;;;;;6240311;28;20045;-68
2022/03/22 08:59:27;;;;;;;65.53;28.27;;;;;;;;;;6233149;28;20112;-68
2022/03/22 09:02:28;;;;;;;58.90;26.10;;;;;;;;;;6234462;28;20470;-70
2022/03/22 09:08:48;;;;;;;53.92;25.00;;;;;;;;;;6233000;28;20045;-70
2022/03/22 09:11:48;;;;;;;52.60;24.33;;;;;;;;;;6234778;28;20528;-70
2022/03/22 09:14:51;;;;;;;48.22;24.25;;;;;;;;;;6233061;28;20052;-69
2022/03/22 09:17:55;;;;;;;58.63;24.63;;;;;;;;;;6233367;28;20288;-68
2022/03/22 09:20:55;;;;;;;60.00;27.60;;;;;;;;;;6233056;28;20112;-71
2022/03/22 09:23:56;;;;;;;53.63;25.00;;;;;;;;;;6235119;28;20863;-71
2022/03/22 09:26:57;;;;;;;49.45;24.30;;;;;;;;;;6237531;28;20045;-71
2022/03/22 09:29:58;;;;;;;53.53;26.35;;;;;;;;;;6233755;28;20160;-71
2022/03/22 09:32:58;;;;;;;51.30;23.83;;;;;;;;;;6234703;28;20457;-70
2022/03/22 09:35:59;;;;;;;49.40;22.33;;;;;;;;;;6236567;28;20063;-70
2022/03/22 09:39:01;;;;;;;53.35;24.45;;;;;;;;;;6235206;28;20385;-71
2022/03/22 09:42:03;;;;;;;53.50;24.00;;;;;;;;;;6235201;28;20049;-71
2022/03/22 09:45:08;;;;;;;47.60;22.23;;;;;;;;;;6235091;28;20122;-71
2022/03/22 09:48:09;;;;;;;50.28;22.92;;;;;;;;;;6235750;28;20045;-66
2022/03/22 09:54:29;;;;;;;56.72;26.25;;;;;;;;;;6231569;28;20046;-71
2022/03/22 09:57:30;;;;;;;48.28;22.77;;;;;;;;;;6236924;28;20049;-72
2022/03/22 10:00:30;;;;;;;51.03;23.30;;;;;;;;;;6244127;28;20120;-73
2022/03/22 10:03:31;;;;;;;46.78;21.67;;;;;;;;;;6244294;28;20536;-67
2022/03/22 10:06:33;;;;;;;45.97;21.17;;;;;;;;;;6244059;28;20500;-67
2022/03/22 10:09:39;;;;;;;45.10;21.65;;;;;;;;;;6244973;28;20076;-70
2022/03/22 10:12:39;;;;;;;47.47;20.85;;;;;;;;;;6240756;28;20079;-68
2022/03/22 10:15:40;;;;;;;40.10;19.48;;;;;;;;;;6244425;28;20385;-73
2022/03/22 10:18:40;;;;;;;43.05;20.05;;;;;;;;;;6241955;28;20049;-70
2022/03/22 10:21:46;;;;;;;48.85;20.23;;;;;;;;;;6242342;28;20416;-70
2022/03/22 10:24:49;;;;;;;49.60;21.65;;;;;;;;;;6240581;28;20532;-70
2022/03/22 10:27:54;;;;;;;46.80;22.90;;;;;;;;;;6241391;28;20045;-70
2022/03/22 10:30:57;;;;;;;52.80;22.33;;;;;;;;;;6243787;28;20037;-70
2022/03/22 10:33:58;;;;;;;50.40;23.20;;;;;;;;;;6244415;28;20068;-70
2022/03/22 10:36:59;;;;;;;46.28;21.80;;;;;;;;;;6239488;28;20050;-72
2022/03/22 10:40:00;;;;;;;42.28;20.52;;;;;;;;;;6241150;28;20375;-71
2022/03/22 10:43:06;;;;;;;46.17;22.00;;;;;;;;;;6239847;28;20045;-70
2022/03/22 10:46:11;;;;;;;41.90;21.40;;;;;;;;;;6238995;28;20053;-70
2022/03/22 10:49:17;;;;;;;51.28;24.15;;;;;;;;;;6239397;28;20183;-70
2022/03/22 10:52:20;;;;;;;44.63;21.77;;;;;;;;;;6239175;28;20094;-71
2022/03/22 10:55:24;;;;;;;51.78;24.67;;;;;;;;;;6240809;28;20049;-70
2022/03/22 10:58:27;;;;;;;51.00;23.52;;;;;;;;;;6239869;28;20503;-70
2022/03/22 11:01:28;;;;;;;47.42;21.77;;;;;;;;;;6240518;28;20056;-70
2022/03/22 11:04:32;;;;;;;50.80;23.13;;;;;;;;;;6239700;28;20489;-71
2022/03/22 11:07:34;;;;;;;45.20;21.58;;;;;;;;;;6240868;28;20045;-70
2022/03/22 11:10:35;;;;;;;49.22;21.77;;;;;;;;;;6242102;28;20069;-72
2022/03/22 11:13:36;;;;;;;60.40;23.70;;;;;;;;;;6239362;28;20102;-69
2022/03/22 11:16:38;;;;;;;54.47;25.05;;;;;;;;;;6240969;28;20041;-69
2022/03/22 11:19:39;;;;;;;54.92;24.00;;;;;;;;;;6239364;28;20033;-68
2022/03/22 11:22:52;;;;;;;44.03;19.73;;;;;;;;;;6237593;28;20046;-70
2022/03/22 11:25:53;;;;;;;48.65;21.48;;;;;;;;;;6235033;28;20539;-71
2022/03/22 11:28:54;;;;;;;46.33;20.48;;;;;;;;;;6237596;28;20553;-69
2022/03/22 11:35:25;;;;;;;45.45;21.15;;;;;;;;;;6226706;28;20337;-68
2022/03/22 11:38:49;;;;;;;52.25;23.55;;;;;;;;;;6239133;28;20060;-68
2022/03/22 11:45:09;;;;;;;42.45;18.20;;;;;;;;;;6240644;28;20126;-68
2022/03/22 11:48:10;;;;;;;50.00;23.83;;;;;;;;;;6236149;28;20057;-71
2022/03/22 11:51:10;;;;;;;54.08;23.35;;;;;;;;;;6237200;28;20401;-68
2022/03/22 11:54:11;;;;;;;56.88;24.60;;;;;;;;;;6237816;28;20061;-71
2022/03/22 11:57:16;;;;;;;51.58;21.85;;;;;;;;;;6237419;28;20064;-70
2022/03/22 12:00:20;;;;;;;46.08;21.77;;;;;;;;;;6231763;28;20473;-69
2022/03/22 12:03:25;;;;;;;53.90;24.60;;;;;;;;;;6236560;28;20084;-69
2022/03/22 12:06:30;;;;;;;52.92;23.90;;;;;;;;;;6236145;28;20053;-69
2022/03/22 12:09:31;;;;;;;47.97;22.13;;;;;;;;;;6236507;28;20092;-70
2022/03/22 12:12:33;;;;;;;48.13;22.80;;;;;;;;;;6235783;28;20053;-70
2022/03/22 12:15:33;;;;;;;57.85;23.50;;;;;;;;;;6236388;28;20045;-69
2022/03/22 12:18:34;;;;;;;50.72;22.58;;;;;;;;;;6235476;28;20048;-70
2022/03/22 12:21:34;;;;;;;46.10;18.17;;;;;;;;;;6235790;28;20045;-70
2022/03/22 12:24:36;;;;;;;47.38;20.55;;;;;;;;;;6235079;28;20722;-68
2022/03/22 12:27:36;;;;;;;45.53;19.58;;;;;;;;;;6236198;28;20475;-69
2022/03/22 12:30:39;;;;;;;46.60;19.88;;;;;;;;;;6237324;28;20041;-69
2022/03/22 12:33:42;;;;;;;57.15;23.05;;;;;;;;;;6238063;28;20049;-70
2022/03/22 12:36:43;;;;;;;51.92;19.25;;;;;;;;;;6237488;28;20081;-68
2022/03/22 12:39:45;;;;;;;41.78;18.38;;;;;;;;;;6236306;28;20037;-68
2022/03/22 12:42:47;;;;;;;42.47;18.02;;;;;;;;;;6236323;28;20048;-69
2022/03/22 12:45:49;;;;;;;39.67;18.25;;;;;;;;;;6236127;28;20128;-68
2022/03/22 12:48:54;;;;;;;;;;;;;;;;;;6235723;28;20049;-69
2022/03/22 12:51:55;;;;;;;36.58;17.05;;;;;;;;;;6229272;28;19960;-68
2022/03/22 12:54:56;;;;;;;43.30;18.38;;;;;;;;;;6236910;28;20049;-68
2022/03/22 12:57:58;;;;;;;40.90;17.95;;;;;;;;;;6238394;28;20102;-69
2022/03/22 13:00:59;;;;;;;;;;;;;;;;;;6234941;28;20129;-69
2022/03/22 13:03:59;;;;;;;40.85;18.50;;;;;;;;;;6235134;28;19921;-69
2022/03/22 13:07:04;;;;;;;41.60;17.65;;;;;;;;;;6234820;28;20045;-68
2022/03/22 13:15:01;;;;;;;85.57;26.15;;;;;;;;;;6230693;28;20136;-69
2022/03/22 13:16:54;;;;;;;77.82;25.08;;;;;;;;;;6233930;28;20108;-68
2022/03/22 13:19:57;;;;;;;56.08;21.83;;;;;;;;;;6234748;28;20472;-70
2022/03/22 13:23:08;;;;;;;51.20;18.52;;;;;;;;;;6233604;28;20049;-71
2022/03/22 13:26:15;;;;;;;42.67;18.15;;;;;;;;;;6237841;28;20468;-70
2022/03/22 13:29:19;;;;;;;40.97;17.55;;;;;;;;;;6232862;28;20060;-69
2022/03/22 13:32:28;;;;;;;56.80;22.60;;;;;;;;;;6233627;28;20065;-69
2022/03/22 13:35:29;;;;;;;42.22;19.40;;;;;;;;;;6227492;28;21242;-68
2022/03/22 13:38:33;;;;;;;37.50;18.67;;;;;;;;;;6233527;28;20057;-71
2022/03/22 13:41:33;;;;;;;45.00;18.13;;;;;;;;;;6234488;28;20466;-71
2022/03/22 13:44:46;;;;;;;47.33;19.52;;;;;;;;;;6233458;28;20053;-71
2022/03/22 13:47:48;;;;;;;53.60;20.02;;;;;;;;;;6236022;28;20091;-71
2022/03/22 13:50:53;;;;;;;37.65;17.27;;;;;;;;;;6234451;28;20073;-71
2022/03/22 13:53:55;;;;;;;40.65;16.85;;;;;;;;;;6232245;28;21445;-72
2022/03/22 13:57:09;;;;;;;35.53;16.42;;;;;;;;;;6235996;28;20056;-71
2022/03/22 14:00:10;;;;;;;38.63;17.55;;;;;;;;;;6231943;28;20091;-72
2022/03/22 14:03:14;;;;;;;48.42;21.67;;;;;;;;;;6232078;28;20496;-75
2022/03/22 14:06:15;;;;;;;40.20;17.67;;;;;;;;;;6231713;28;20497;-74
2022/03/22 14:09:15;;;;;;;41.67;18.13;;;;;;;;;;6229295;28;20052;-73
2022/03/22 14:12:16;;;;;;;41.08;17.48;;;;;;;;;;6235122;28;20492;-74
2022/03/22 14:15:17;;;;;;;42.05;19.15;;;;;;;;;;6232646;28;20081;-73
2022/03/22 14:18:21;;;;;;;46.67;18.98;;;;;;;;;;6235339;28;20045;-74
2022/03/22 14:21:22;;;;;;;38.63;17.05;;;;;;;;;;6231594;28;20054;-74
2022/03/22 14:24:23;;;;;;;44.72;20.15;;;;;;;;;;6226507;28;20064;-74
2022/03/22 14:27:24;;;;;;;57.33;23.97;;;;;;;;;;6229320;28;20057;-75
2022/03/22 14:30:27;;;;;;;77.13;29.05;;;;;;;;;;6223718;28;20311;-74
2022/03/22 14:33:28;;;;;;;45.92;19.13;;;;;;;;;;6224244;28;20154;-74
2022/03/22 14:36:28;;;;;;;39.72;18.98;;;;;;;;;;6223639;28;20148;-76
2022/03/22 14:39:29;;;;;;;40.45;17.27;;;;;;;;;;6224297;28;20041;-75
2022/03/22 14:42:31;;;;;;;37.03;15.55;;;;;;;;;;6222965;28;20037;-73
2022/03/22 14:45:33;;;;;;;37.78;16.52;;;;;;;;;;6224653;28;20060;-73
2022/03/22 14:48:34;;;;;;;38.53;17.00;;;;;;;;;;6228644;28;20060;-72
2022/03/22 14:54:54;;;;;;;39.20;16.88;;;;;;;;;;6230047;28;20423;-74
2022/03/22 15:01:15;;;;;;;38.63;17.40;;;;;;;;;;6232305;28;20053;-74
2022/03/22 15:04:16;;;;;;;;;;;;;;;;;;6231535;28;20061;-74
2022/03/22 15:07:21;;;;;;;37.67;17.10;;;;;;;;;;6226942;28;20284;-73
2022/03/22 15:10:23;;;;;;;38.70;17.70;;;;;;;;;;6225267;28;20527;-74
2022/03/22 15:13:25;;;;;;;38.92;18.17;;;;;;;;;;6226875;28;20058;-74
2022/03/22 15:16:26;;;;;;;40.42;18.75;;;;;;;;;;6227844;28;20045;-75
2022/03/22 15:19:27;;;;;;;39.08;19.45;;;;;;;;;;6226871;28;20616;-74
2022/03/22 15:22:28;;;;;;;35.25;17.98;;;;;;;;;;6226538;28;20119;-74
2022/03/22 15:25:29;;;;;;;40.08;18.35;;;;;;;;;;6220828;28;20185;-63
2022/03/22 15:28:30;;;;;;;41.73;19.50;;;;;;;;;;6222055;28;20083;-74
2022/03/22 15:31:30;;;;;;;37.25;17.50;;;;;;;;;;6222560;28;20053;-74
2022/03/22 15:34:31;;;;;;;41.13;18.50;;;;;;;;;;6223710;28;20049;-68
2022/03/22 15:37:32;;;;;;;36.67;17.60;;;;;;;;;;6231628;28;20508;-65
2022/03/22 15:40:32;;;;;;;43.42;18.98;;;;;;;;;;6231579;28;20046;-75
2022/03/22 15:43:33;;;;;;;44.30;18.52;;;;;;;;;;6231173;28;20061;-73
2022/03/22 15:46:34;;;;;;;47.27;20.40;;;;;;;;;;6229976;28;20064;-69
2022/03/22 15:49:35;;;;;;;34.75;17.67;;;;;;;;;;6230667;28;20077;-68
2022/03/22 15:52:36;;;;;;;38.23;18.30;;;;;;;;;;6229481;28;20054;-68
2022/03/22 15:55:38;;;;;;;38.53;17.63;;;;;;;;;;6229512;28;20053;-68
2022/03/22 15:58:38;;;;;;;38.65;19.02;;;;;;;;;;6232311;28;20076;-69
2022/03/22 16:01:40;;;;;;;44.28;18.67;;;;;;;;;;6227807;28;20045;-71
2022/03/22 16:04:40;;;;;;;45.70;19.45;;;;;;;;;;6231096;28;20128;-71
2022/03/22 16:07:41;;;;;;;38.75;18.67;;;;;;;;;;6231621;28;20042;-69
2022/03/22 16:10:42;;;;;;;41.53;18.77;;;;;;;;;;6231479;28;20053;-72
2022/03/22 16:13:42;;;;;;;43.90;19.43;;;;;;;;;;6229066;28;20068;-74
2022/03/22 16:16:43;;;;;;;39.63;19.77;;;;;;;;;;6229765;28;20063;-67
2022/03/22 16:19:44;;;;;;;36.45;17.90;;;;;;;;;;6228547;28;20044;-71
2022/03/22 16:22:44;;;;;;;56.97;29.67;;;;;;;;;;6230673;28;20045;-70
2022/03/22 16:25:46;;;;;;;49.05;23.25;;;;;;;;;;6229659;28;20053;-68
2022/03/22 16:28:47;;;;;;;60.80;22.08;;;;;;;;;;6231075;28;20080;-66
2022/03/22 16:31:49;;;;;;;56.17;21.48;;;;;;;;;;6228577;28;20484;-74
2022/03/22 16:38:09;;;;;;;51.22;20.90;;;;;;;;;;6228077;28;20551;-69
2022/03/22 16:41:10;;;;;;;158.27;101.35;;;;;;;;;;6227419;28;20052;-70
2022/03/22 16:44:10;;;;;;;45.65;25.23;;;;;;;;;;6227346;28;20506;-65
2022/03/22 16:47:19;;;;;;;36.53;16.83;;;;;;;;;;6224696;28;20137;-65
2022/03/22 16:50:19;;;;;;;32.47;16.38;;;;;;;;;;6227081;28;20719;-65
2022/03/22 16:53:25;;;;;;;40.10;16.40;;;;;;;;;;6229600;28;20203;-65
2022/03/22 16:56:25;;;;;;;34.65;15.80;;;;;;;;;;6228018;28;20067;-66
2022/03/22 16:59:29;;;;;;;39.63;18.92;;;;;;;;;;6230857;28;20724;-67
2022/03/22 17:02:29;;;;;;;44.08;19.60;;;;;;;;;;6229290;28;21347;-63
2022/03/22 17:05:30;;;;;;;54.97;21.70;;;;;;;;;;6227849;28;20053;-63
2022/03/22 17:08:31;;;;;;;160.75;71.88;;;;;;;;;;6232101;28;20965;-65
2022/03/22 17:11:32;;;;;;;342.27;140.90;;;;;;;;;;6232616;28;20512;-66
2022/03/22 17:14:34;;;;;;;297.67;125.90;;;;;;;;;;6232371;28;20045;-65
2022/03/22 17:17:35;;;;;;;144.70;59.40;;;;;;;;;;6229143;28;20050;-66
2022/03/22 17:20:36;;;;;;;147.93;54.28;;;;;;;;;;6232444;28;20160;-67
2022/03/22 17:23:37;;;;;;;148.10;54.75;;;;;;;;;;6230987;28;20098;-66
2022/03/22 17:26:39;;;;;;;162.73;60.20;;;;;;;;;;6230933;28;20401;-63
2022/03/22 17:29:41;;;;;;;154.35;56.15;;;;;;;;;;6230913;28;20411;-67
2022/03/22 17:32:45;;;;;;;156.93;57.90;;;;;;;;;;6234214;28;20049;-63
2022/03/22 17:35:46;;;;;;;162.45;57.40;;;;;;;;;;6230348;28;20403;-70
2022/03/22 17:38:49;;;;;;;170.60;58.53;;;;;;;;;;6218480;28;20084;-67
2022/03/22 17:41:49;;;;;;;155.10;55.60;;;;;;;;;;6223610;28;20084;-67
2022/03/22 17:44:51;;;;;;;182.55;63.67;;;;;;;;;;6218917;28;20046;-67
2022/03/22 17:47:53;;;;;;;191.73;62.75;;;;;;;;;;6218507;28;20424;-66
2022/03/22 17:50:54;;;;;;;186.55;64.32;;;;;;;;;;6218049;28;20049;-68
2022/03/22 17:53:56;;;;;;;162.18;54.53;;;;;;;;;;6218366;28;20678;-65
2022/03/22 17:56:56;;;;;;;168.98;62.25;;;;;;;;;;6219232;28;20060;-65
2022/03/22 17:59:57;;;;;;;153.93;55.20;;;;;;;;;;6217387;28;20497;-66
2022/03/22 18:02:58;;;;;;;159.15;59.10;;;;;;;;;;6221260;28;20140;-66
2022/03/22 18:05:59;;;;;;;151.52;55.65;;;;;;;;;;6220827;28;20963;-66
2022/03/22 18:08:59;;;;;;;165.32;58.08;;;;;;;;;;6219979;28;20053;-66
2022/03/22 18:12:00;;;;;;;207.80;65.38;;;;;;;;;;6220351;28;20089;-66
2022/03/22 18:15:01;;;;;;;198.90;63.00;;;;;;;;;;6219332;28;20819;-68
2022/03/22 18:18:02;;;;;;;178.47;59.47;;;;;;;;;;6216755;28;20489;-66
2022/03/22 18:21:03;;;;;;;174.50;56.28;;;;;;;;;;6221061;28;20128;-65
2022/03/22 18:24:04;;;;;;;204.90;70.88;;;;;;;;;;6220069;28;20527;-64
2022/03/22 18:27:05;;;;;;;184.10;61.53;;;;;;;;;;6220370;28;20049;-64